createdAt,value
2019-05-20T00:00:06.078Z,14.40
2019-05-20T00:02:34.478Z,14.50
2019-05-20T00:05:02.953Z,14.40
2019-05-20T00:07:31.356Z,14.40
2019-05-20T00:09:59.738Z,14.50
2019-05-20T00:12:28.819Z,14.50
2019-05-20T00:14:57.220Z,14.60
2019-05-20T00:17:25.643Z,14.50
2019-05-20T00:19:54.028Z,14.30
2019-05-20T00:22:22.422Z,14.20
2019-05-20T00:24:50.882Z,14.10
2019-05-20T00:27:19.287Z,14.20
2019-05-20T00:29:47.683Z,14.10
2019-05-20T00:32:16.450Z,14.00
2019-05-20T00:34:44.905Z,14.00
2019-05-20T00:37:13.337Z,13.90
2019-05-20T00:39:41.728Z,13.90
2019-05-20T00:42:10.125Z,13.80
2019-05-20T00:44:39.567Z,13.80
2019-05-20T00:47:07.965Z,13.80
2019-05-20T00:49:36.362Z,13.70
2019-05-20T00:52:04.787Z,13.70
2019-05-20T00:54:33.271Z,13.60
2019-05-20T00:57:01.677Z,13.50
2019-05-20T00:59:30.088Z,13.40
2019-05-20T01:01:58.478Z,13.40
2019-05-20T01:04:26.892Z,13.40
2019-05-20T01:06:55.347Z,13.40
2019-05-20T01:09:23.742Z,13.40
2019-05-20T01:11:52.140Z,13.40
2019-05-20T01:14:20.548Z,13.40
2019-05-20T01:16:49.805Z,13.40
2019-05-20T01:19:18.211Z,13.50
2019-05-20T01:21:46.598Z,13.50
2019-05-20T01:24:15.070Z,13.60
2019-05-20T01:26:43.538Z,13.70
2019-05-20T01:29:11.948Z,13.70
2019-05-20T01:31:40.346Z,13.80
2019-05-20T01:34:08.756Z,13.80
2019-05-20T01:36:37.145Z,13.90
2019-05-20T01:39:06.994Z,13.90
2019-05-20T01:41:35.390Z,14.00
2019-05-20T01:44:03.868Z,14.00
2019-05-20T01:46:32.250Z,14.10
2019-05-20T01:49:00.650Z,14.10
2019-05-20T01:51:29.045Z,14.10
2019-05-20T01:53:57.446Z,14.10
2019-05-20T01:56:25.850Z,14.00
2019-05-20T01:58:54.265Z,14.00
2019-05-20T02:01:22.668Z,14.10
2019-05-20T02:03:51.070Z,14.10
2019-05-20T02:06:19.460Z,14.10
2019-05-20T02:08:47.877Z,14.10
2019-05-20T02:11:16.271Z,14.10
2019-05-20T02:13:52.194Z,14.10
2019-05-20T02:16:22.589Z,14.10
2019-05-20T02:18:51.002Z,14.00
2019-05-20T02:21:19.407Z,14.00
2019-05-20T02:23:47.794Z,14.00
2019-05-20T02:26:16.186Z,13.90
2019-05-20T02:28:44.591Z,13.80
2019-05-20T02:31:12.999Z,13.80
2019-05-20T02:33:51.955Z,13.80
2019-05-20T02:36:11.593Z,13.80
2019-05-20T02:38:40.010Z,13.70
2019-05-20T02:41:08.399Z,13.70
2019-05-20T02:43:36.788Z,13.70
2019-05-20T02:46:05.931Z,13.70
2019-05-20T02:48:34.318Z,13.60
2019-05-20T02:51:02.730Z,13.50
2019-05-20T02:53:31.133Z,13.60
2019-05-20T02:55:59.544Z,13.60
2019-05-20T02:58:27.955Z,13.70
2019-05-20T03:00:56.359Z,13.70
2019-05-20T03:03:24.742Z,13.80
2019-05-20T03:05:53.157Z,13.80
2019-05-20T03:08:21.603Z,13.70
2019-05-20T03:10:50.011Z,13.70
2019-05-20T03:13:18.396Z,13.60
2019-05-20T03:15:46.822Z,13.60
2019-05-20T03:18:15.221Z,13.60
2019-05-20T03:20:43.607Z,13.60
2019-05-20T03:23:12.019Z,13.70
2019-05-20T03:25:40.454Z,13.60
2019-05-20T03:28:08.899Z,13.50
2019-05-20T03:30:37.313Z,13.50
2019-05-20T03:33:05.707Z,13.60
2019-05-20T03:35:34.115Z,13.60
2019-05-20T03:38:02.509Z,13.60
2019-05-20T03:40:30.937Z,13.60
2019-05-20T03:42:59.383Z,13.60
2019-05-20T03:45:27.817Z,13.60
2019-05-20T03:47:56.199Z,13.60
2019-05-20T03:50:24.613Z,13.60
2019-05-20T03:52:53.072Z,13.60
2019-05-20T03:55:22.259Z,13.70
2019-05-20T03:57:50.651Z,13.70
2019-05-20T04:00:22.148Z,13.60
2019-05-20T04:02:51.460Z,13.50
2019-05-20T04:05:19.871Z,13.60
2019-05-20T04:07:48.253Z,13.50
2019-05-20T04:10:16.710Z,13.60
2019-05-20T04:12:45.115Z,13.50
2019-05-20T04:15:13.599Z,13.60
2019-05-20T04:17:41.995Z,13.60
2019-05-20T04:20:10.456Z,13.60
2019-05-20T04:22:38.881Z,13.50
2019-05-20T04:25:07.489Z,13.60
2019-05-20T04:27:35.913Z,13.60
2019-05-20T04:30:06.665Z,13.70
2019-05-20T04:32:35.119Z,13.70
2019-05-20T04:35:20.407Z,13.70
2019-05-20T04:37:33.802Z,13.80
2019-05-20T04:40:02.202Z,13.90
2019-05-20T04:42:30.730Z,13.90
2019-05-20T04:44:59.121Z,14.10
2019-05-20T04:47:27.533Z,14.20
2019-05-20T04:49:56.269Z,14.30
2019-05-20T04:52:24.697Z,14.30
2019-05-20T04:54:53.092Z,14.30
2019-05-20T04:57:21.509Z,14.50
2019-05-20T04:59:49.977Z,14.50
2019-05-20T05:02:18.384Z,14.50
2019-05-20T05:04:46.785Z,14.60
2019-05-20T05:07:15.326Z,14.50
2019-05-20T05:09:43.805Z,14.60
2019-05-20T05:12:12.224Z,14.70
2019-05-20T05:14:40.713Z,14.90
2019-05-20T05:17:09.164Z,15.00
2019-05-20T05:19:37.621Z,15.10
2019-05-20T05:22:06.018Z,15.20
2019-05-20T05:24:34.427Z,15.30
2019-05-20T05:27:02.965Z,15.30
2019-05-20T05:29:31.368Z,15.40
2019-05-20T05:31:59.841Z,15.50
2019-05-20T05:34:28.248Z,15.60
2019-05-20T05:36:56.650Z,15.60
2019-05-20T05:39:25.043Z,15.70
2019-05-20T05:41:53.447Z,15.60
2019-05-20T05:44:21.848Z,15.70
2019-05-20T05:46:50.252Z,15.70
2019-05-20T05:49:18.652Z,15.80
2019-05-20T05:51:47.117Z,15.70
2019-05-20T05:54:15.527Z,15.80
2019-05-20T05:56:43.951Z,15.80
2019-05-20T05:59:12.467Z,15.90
2019-05-20T06:01:40.870Z,16.00
2019-05-20T06:04:09.281Z,16.10
2019-05-20T06:06:37.666Z,16.20
2019-05-20T06:09:07.217Z,16.30
2019-05-20T06:11:35.613Z,16.50
2019-05-20T06:14:04.085Z,16.60
2019-05-20T06:16:36.663Z,16.60
2019-05-20T06:19:02.640Z,16.60
2019-05-20T06:21:31.102Z,16.60
2019-05-20T06:23:59.567Z,16.50
2019-05-20T06:26:28.028Z,16.60
2019-05-20T06:28:56.422Z,16.60
2019-05-20T06:31:24.825Z,16.60
2019-05-20T06:33:53.557Z,16.40
2019-05-20T06:36:27.001Z,16.20
2019-05-20T06:38:53.885Z,16.30
2019-05-20T06:41:22.352Z,16.30
2019-05-20T06:43:50.755Z,16.40
2019-05-20T06:46:19.238Z,16.40
2019-05-20T06:48:47.643Z,16.40
2019-05-20T06:51:16.056Z,16.30
2019-05-20T06:53:44.464Z,16.30
2019-05-20T06:56:12.873Z,16.50
2019-05-20T06:58:41.282Z,16.30
2019-05-20T07:01:09.697Z,16.40
2019-05-20T07:03:38.131Z,16.40
2019-05-20T07:06:06.524Z,16.20
2019-05-20T07:08:34.931Z,16.30
2019-05-20T07:11:03.351Z,16.20
2019-05-20T07:13:31.747Z,16.20
2019-05-20T07:16:00.157Z,16.00
2019-05-20T07:18:28.545Z,16.00
2019-05-20T07:20:56.974Z,16.00
2019-05-20T07:23:25.378Z,16.00
2019-05-20T07:25:53.792Z,15.90
2019-05-20T07:28:22.830Z,15.80
2019-05-20T07:30:51.249Z,15.70
2019-05-20T07:33:19.671Z,15.70
2019-05-20T07:35:48.071Z,15.80
2019-05-20T07:38:16.482Z,15.80
2019-05-20T07:40:44.897Z,15.80
2019-05-20T07:43:13.369Z,15.70
2019-05-20T07:45:42.238Z,15.70
2019-05-20T07:48:10.691Z,15.80
2019-05-20T07:50:40.177Z,15.80
2019-05-20T07:53:10.245Z,15.80
2019-05-20T07:55:56.691Z,15.80
2019-05-20T07:58:27.847Z,15.80
2019-05-20T08:00:56.268Z,15.80
2019-05-20T08:03:24.723Z,15.80
2019-05-20T08:05:53.153Z,15.70
2019-05-20T08:08:21.717Z,15.70
2019-05-20T08:10:50.183Z,15.60
2019-05-20T08:13:18.583Z,15.70
2019-05-20T08:15:47.013Z,15.70
2019-05-20T08:18:15.440Z,15.80
2019-05-20T08:20:43.927Z,15.80
2019-05-20T08:23:12.340Z,16.10
2019-05-20T08:25:40.813Z,16.10
2019-05-20T08:28:09.300Z,16.20
2019-05-20T08:30:38.875Z,16.40
2019-05-20T08:33:08.212Z,16.50
2019-05-20T08:35:36.707Z,16.70
2019-05-20T08:38:05.174Z,16.80
2019-05-20T08:40:33.596Z,16.80
2019-05-20T08:43:02.007Z,16.80
2019-05-20T08:45:30.432Z,16.90
2019-05-20T08:47:58.893Z,16.60
2019-05-20T08:50:27.442Z,16.40
2019-05-20T08:52:56.002Z,16.30
2019-05-20T08:55:24.495Z,16.20
2019-05-20T08:57:52.943Z,16.20
2019-05-20T09:00:24.222Z,16.30
2019-05-20T09:02:53.329Z,16.40
2019-05-20T09:05:21.724Z,16.50
2019-05-20T09:08:02.367Z,16.50
2019-05-20T09:10:20.309Z,16.50
2019-05-20T09:12:48.725Z,16.60
2019-05-20T09:15:17.266Z,16.60
2019-05-20T09:17:45.693Z,16.60
2019-05-20T09:20:14.435Z,16.70
2019-05-20T09:22:42.860Z,16.80
2019-05-20T09:25:11.888Z,17.00
2019-05-20T09:27:40.383Z,17.10
2019-05-20T09:30:09.656Z,17.10
2019-05-20T09:32:42.617Z,17.10
2019-05-20T09:35:10.319Z,16.90
2019-05-20T09:37:38.908Z,16.60
2019-05-20T09:40:08.372Z,16.60
2019-05-20T09:42:40.627Z,16.70
2019-05-20T09:45:07.173Z,16.80
2019-05-20T09:47:35.739Z,16.90
2019-05-20T09:50:04.995Z,17.10
2019-05-20T09:52:33.389Z,17.20
2019-05-20T09:55:01.931Z,17.00
2019-05-20T09:57:30.510Z,16.80
2019-05-20T09:59:58.917Z,16.60
2019-05-20T10:02:34.531Z,16.50
2019-05-20T10:04:57.539Z,16.40
2019-05-20T10:07:25.956Z,16.40
2019-05-20T10:09:56.306Z,16.40
2019-05-20T10:12:44.255Z,16.20
2019-05-20T10:14:54.957Z,16.20
2019-05-20T10:17:23.442Z,16.20
2019-05-20T10:19:51.907Z,16.30
2019-05-20T10:22:20.310Z,16.20
2019-05-20T10:24:48.717Z,16.10
2019-05-20T10:27:17.136Z,16.10
2019-05-20T10:29:45.530Z,16.00
2019-05-20T10:32:13.942Z,15.90
2019-05-20T10:34:42.357Z,15.70
2019-05-20T10:37:10.772Z,15.60
2019-05-20T10:39:39.180Z,15.70
2019-05-20T10:42:07.601Z,15.70
2019-05-20T10:44:36.024Z,15.80
2019-05-20T10:47:04.483Z,15.80
2019-05-20T10:49:32.960Z,15.80
2019-05-20T10:52:01.369Z,15.80
2019-05-20T10:54:29.796Z,15.70
2019-05-20T10:56:59.733Z,15.70
2019-05-20T10:59:28.324Z,15.70
2019-05-20T11:01:56.768Z,15.60
2019-05-20T11:04:25.242Z,15.70
2019-05-20T11:06:53.703Z,15.60
2019-05-20T11:09:22.126Z,15.60
2019-05-20T11:11:50.531Z,15.60
2019-05-20T11:14:18.941Z,15.70
2019-05-20T11:16:47.360Z,15.80
2019-05-20T11:19:15.783Z,15.70
2019-05-20T11:21:44.163Z,15.70
2019-05-20T11:24:12.566Z,15.70
2019-05-20T11:26:41.020Z,15.80
2019-05-20T11:29:09.476Z,15.80
2019-05-20T11:31:37.887Z,15.80
2019-05-20T11:34:06.295Z,15.80
2019-05-20T11:36:34.699Z,15.80
2019-05-20T11:39:07.250Z,15.70
2019-05-20T11:44:05.249Z,15.60
2019-05-20T11:46:33.651Z,15.60
2019-05-20T11:49:02.058Z,15.50
2019-05-20T11:51:30.446Z,15.60
2019-05-20T11:53:58.878Z,15.60
2019-05-20T11:56:27.352Z,15.60
2019-05-20T11:58:55.770Z,15.70
2019-05-20T12:01:24.178Z,15.80
2019-05-20T12:03:52.595Z,15.80
2019-05-20T12:06:20.982Z,15.90
2019-05-20T12:08:49.378Z,16.00
2019-05-20T12:11:17.797Z,16.10
2019-05-20T12:13:46.199Z,16.20
2019-05-20T12:16:14.615Z,16.30
2019-05-20T12:18:45.096Z,16.50
2019-05-20T12:21:13.228Z,16.60
2019-05-20T12:23:41.653Z,16.80
2019-05-20T12:26:10.153Z,16.90
2019-05-20T12:28:38.613Z,17.10
2019-05-20T12:31:07.029Z,17.30
2019-05-20T12:33:35.418Z,17.30
2019-05-20T12:36:04.472Z,17.40
2019-05-20T12:38:32.868Z,17.50
2019-05-20T12:41:01.456Z,17.60
2019-05-20T12:43:29.875Z,17.80
2019-05-20T12:45:58.303Z,17.90
2019-05-20T12:48:26.721Z,17.80
2019-05-20T12:50:55.114Z,18.00
2019-05-20T12:53:23.516Z,18.10
2019-05-20T12:55:51.914Z,18.00
2019-05-20T12:58:20.336Z,18.10
2019-05-20T13:00:48.744Z,17.90
2019-05-20T13:03:17.237Z,17.90
2019-05-20T13:05:45.640Z,17.80
2019-05-20T13:08:14.065Z,17.60
2019-05-20T13:10:42.563Z,17.40
2019-05-20T13:13:10.971Z,17.40
2019-05-20T13:15:39.376Z,17.20
2019-05-20T13:18:07.782Z,17.20
2019-05-20T13:20:36.189Z,17.20
2019-05-20T13:23:07.218Z,17.20
2019-05-20T13:25:34.989Z,17.40
2019-05-20T13:28:03.403Z,17.70
2019-05-20T13:30:31.799Z,18.00
2019-05-20T13:33:00.208Z,18.20
2019-05-20T13:35:28.594Z,18.20
2019-05-20T13:37:57.007Z,18.30
2019-05-20T13:40:25.414Z,18.40
2019-05-20T13:42:53.811Z,18.30
2019-05-20T13:45:22.474Z,18.30
2019-05-20T13:47:50.899Z,18.60
2019-05-20T13:50:19.437Z,18.80
2019-05-20T13:52:47.930Z,18.80
2019-05-20T13:55:16.393Z,18.70
2019-05-20T13:57:44.824Z,18.60
2019-05-20T14:00:13.959Z,18.50
2019-05-20T14:02:42.374Z,18.40
2019-05-20T14:05:11.525Z,18.20
2019-05-20T14:07:39.948Z,18.10
2019-05-20T14:10:08.787Z,18.00
2019-05-20T14:12:37.216Z,17.90
2019-05-20T14:15:06.546Z,17.70
2019-05-20T14:17:35.027Z,17.60
2019-05-20T14:20:03.855Z,17.60
2019-05-20T14:22:32.311Z,17.60
2019-05-20T14:25:00.704Z,17.40
2019-05-20T14:27:29.105Z,17.40
2019-05-20T14:29:57.516Z,17.30
2019-05-20T14:32:25.935Z,17.20
2019-05-20T14:34:54.344Z,17.20
2019-05-20T14:37:23.460Z,17.20
2019-05-20T14:39:52.007Z,17.20
2019-05-20T14:42:20.468Z,17.30
2019-05-20T14:44:48.907Z,17.30
2019-05-20T14:47:17.338Z,17.40
2019-05-20T14:49:45.729Z,17.30
2019-05-20T14:52:14.149Z,17.40
2019-05-20T14:54:42.554Z,17.60
2019-05-20T14:57:10.979Z,17.80
2019-05-20T14:59:39.399Z,17.80
2019-05-20T15:02:07.851Z,18.00
2019-05-20T15:04:36.260Z,18.00
2019-05-20T15:07:04.829Z,17.90
2019-05-20T15:09:33.262Z,17.90
2019-05-20T15:12:01.762Z,17.80
2019-05-20T15:14:30.233Z,17.70
2019-05-20T15:16:58.626Z,17.70
2019-05-20T15:19:27.044Z,17.50
2019-05-20T15:21:55.443Z,17.40
2019-05-20T15:24:23.863Z,17.30
2019-05-20T15:26:52.399Z,17.20
2019-05-20T15:29:27.890Z,17.10
2019-05-20T15:31:50.988Z,17.10
2019-05-20T15:34:19.411Z,17.00
2019-05-20T15:36:47.840Z,17.00
2019-05-20T15:39:16.382Z,16.90
2019-05-20T15:41:44.909Z,16.80
2019-05-20T15:44:13.366Z,16.80
2019-05-20T15:46:41.795Z,16.80
2019-05-20T15:49:10.200Z,16.70
2019-05-20T15:51:38.593Z,16.70
2019-05-20T15:54:07.027Z,16.70
2019-05-20T15:56:35.581Z,16.80
2019-05-20T15:59:05.004Z,16.70
2019-05-20T16:01:33.482Z,16.70
2019-05-20T16:04:01.917Z,16.70
2019-05-20T16:06:30.318Z,16.60
2019-05-20T16:08:58.758Z,16.60
2019-05-20T16:11:27.259Z,16.60
2019-05-20T16:13:55.721Z,16.60
2019-05-20T16:16:24.118Z,16.60
2019-05-20T16:18:52.569Z,16.50
2019-05-20T16:21:20.971Z,16.50
2019-05-20T16:23:49.723Z,16.40
2019-05-20T16:26:18.118Z,16.40
2019-05-20T16:28:46.547Z,16.50
2019-05-20T16:31:14.939Z,16.50
2019-05-20T16:33:43.341Z,16.50
2019-05-20T16:36:11.818Z,16.60
2019-05-20T16:38:40.240Z,16.60
2019-05-20T16:41:08.633Z,16.70
2019-05-20T16:43:37.042Z,16.60
2019-05-20T16:46:05.447Z,16.50
2019-05-20T16:48:33.855Z,16.30
2019-05-20T16:51:02.259Z,16.30
2019-05-20T16:53:30.734Z,16.20
2019-05-20T16:55:59.131Z,16.20
2019-05-20T16:58:27.562Z,16.20
2019-05-20T17:00:55.957Z,16.20
2019-05-20T17:03:24.409Z,16.10
2019-05-20T17:05:52.796Z,16.00
2019-05-20T17:08:21.204Z,16.00
2019-05-20T17:10:49.607Z,16.00
2019-05-20T17:13:18.043Z,15.90
2019-05-20T17:15:46.434Z,15.80
2019-05-20T17:18:14.837Z,15.80
2019-05-20T17:20:46.329Z,15.80
2019-05-20T17:23:14.333Z,15.80
2019-05-20T17:25:42.739Z,15.80
2019-05-20T17:28:11.152Z,15.70
2019-05-20T17:30:45.405Z,15.60
2019-05-20T17:33:09.830Z,15.50
2019-05-20T17:35:38.326Z,15.50
2019-05-20T17:38:06.796Z,15.50
2019-05-20T17:40:35.266Z,15.50
2019-05-20T17:43:04.150Z,15.40
2019-05-20T17:45:32.595Z,15.40
2019-05-20T17:48:01.009Z,15.30
2019-05-20T17:50:29.438Z,15.30
2019-05-20T17:52:57.879Z,15.30
2019-05-20T17:55:26.468Z,15.30
2019-05-20T17:57:54.917Z,15.20
2019-05-20T18:00:23.542Z,15.20
2019-05-20T18:02:52.182Z,15.20
2019-05-20T18:05:20.678Z,15.10
2019-05-20T18:07:49.131Z,15.10
2019-05-20T18:10:19.371Z,15.10
2019-05-20T18:12:47.787Z,15.00
2019-05-20T18:15:17.357Z,14.90
2019-05-20T18:17:45.745Z,14.90
2019-05-20T18:20:14.404Z,14.80
2019-05-20T18:22:42.799Z,14.80
2019-05-20T18:25:11.658Z,14.80
2019-05-20T18:27:40.354Z,14.80
2019-05-20T18:30:09.307Z,14.70
2019-05-20T18:32:38.610Z,14.70
2019-05-20T18:35:07.526Z,14.80
2019-05-20T18:37:35.914Z,14.70
2019-05-20T18:40:13.931Z,14.70
2019-05-20T18:42:35.678Z,14.70
2019-05-20T18:45:05.929Z,14.80
2019-05-20T18:47:34.332Z,14.70
2019-05-20T18:50:03.525Z,14.70
2019-05-20T18:52:31.914Z,14.70
2019-05-20T18:55:00.341Z,14.70
2019-05-20T18:57:28.744Z,14.70
2019-05-20T18:59:57.155Z,14.80
2019-05-20T19:02:25.538Z,14.80
2019-05-20T19:04:53.975Z,14.80
2019-05-20T19:07:22.353Z,14.80
2019-05-20T19:09:50.776Z,14.80
2019-05-20T19:12:19.443Z,14.80
2019-05-20T19:14:47.960Z,14.80
2019-05-20T19:17:16.387Z,14.80
2019-05-20T19:19:44.793Z,14.70
2019-05-20T19:22:13.193Z,14.70
2019-05-20T19:24:41.620Z,14.70
2019-05-20T19:27:10.582Z,14.70
2019-05-20T19:29:38.998Z,14.70
2019-05-20T19:32:07.720Z,14.70
2019-05-20T19:34:36.120Z,14.70
2019-05-20T19:37:04.533Z,14.80
2019-05-20T19:39:32.949Z,14.80
2019-05-20T19:42:01.381Z,14.80
2019-05-20T19:44:29.778Z,14.80
2019-05-20T19:46:58.201Z,14.80
2019-05-20T19:49:26.608Z,14.80
2019-05-20T19:51:55.090Z,14.80
2019-05-20T19:54:23.514Z,14.80
2019-05-20T19:56:52.029Z,14.80
2019-05-20T19:59:20.467Z,14.80
2019-05-20T20:01:48.903Z,14.80
2019-05-20T20:04:17.333Z,14.80
2019-05-20T20:06:45.788Z,14.80
2019-05-20T20:09:14.265Z,14.80
2019-05-20T20:11:42.744Z,14.80
2019-05-20T20:14:11.202Z,14.80
2019-05-20T20:16:39.740Z,14.80
2019-05-20T20:19:08.198Z,14.70
2019-05-20T20:21:36.642Z,14.70
2019-05-20T20:24:05.223Z,14.60
2019-05-20T20:26:33.631Z,14.60
2019-05-20T20:29:02.040Z,14.60
2019-05-20T20:31:30.439Z,14.50
2019-05-20T20:33:58.838Z,14.40
2019-05-20T20:36:27.265Z,14.40
2019-05-20T20:38:55.667Z,14.30
2019-05-20T20:41:24.079Z,14.30
2019-05-20T20:43:52.486Z,14.20
2019-05-20T20:46:20.873Z,14.10
2019-05-20T20:48:49.295Z,14.10
2019-05-20T20:51:17.690Z,14.10
2019-05-20T20:53:46.138Z,14.00
2019-05-20T20:56:24.643Z,14.00
2019-05-20T20:58:44.693Z,14.00
2019-05-20T21:01:13.138Z,14.00
2019-05-20T21:03:41.577Z,13.90
2019-05-20T21:06:10.043Z,13.90
2019-05-20T21:08:38.450Z,13.90
2019-05-20T21:11:06.846Z,14.00
2019-05-20T21:13:35.276Z,13.90
2019-05-20T21:16:03.737Z,13.90
2019-05-20T21:18:32.156Z,13.80
2019-05-20T21:21:00.557Z,13.80
2019-05-20T21:23:28.966Z,13.80
2019-05-20T21:25:57.366Z,13.70
2019-05-20T21:28:25.837Z,13.70
2019-05-20T21:30:54.244Z,13.70
2019-05-20T21:33:22.675Z,13.70
2019-05-20T21:35:51.071Z,13.70
2019-05-20T21:38:19.497Z,13.60
2019-05-20T21:40:47.909Z,13.60
2019-05-20T21:43:16.309Z,13.60
2019-05-20T21:45:44.719Z,13.60
2019-05-20T21:48:13.130Z,13.60
2019-05-20T21:50:41.532Z,13.60
2019-05-20T21:53:09.944Z,13.60
2019-05-20T21:55:38.355Z,13.60
2019-05-20T21:58:06.783Z,13.60
2019-05-20T22:00:36.974Z,13.60
2019-05-20T22:03:05.462Z,13.60
2019-05-20T22:05:33.937Z,13.60
2019-05-20T22:08:04.257Z,13.60
2019-05-20T22:10:32.483Z,13.60
2019-05-20T22:13:00.902Z,13.60
2019-05-20T22:15:29.294Z,13.60
2019-05-20T22:17:57.695Z,13.70
2019-05-20T22:20:26.094Z,13.70
2019-05-20T22:23:02.148Z,13.70
2019-05-20T22:25:30.545Z,13.70
2019-05-20T22:27:58.954Z,13.70
2019-05-20T22:30:27.374Z,13.70
2019-05-20T22:32:55.785Z,13.70
2019-05-20T22:35:24.181Z,13.70
2019-05-20T22:37:52.584Z,13.70
2019-05-20T22:40:21.004Z,13.60
2019-05-20T22:42:49.399Z,13.70
2019-05-20T22:45:17.810Z,13.70
2019-05-20T22:47:46.215Z,13.60
2019-05-20T22:50:14.627Z,13.60
2019-05-20T22:52:43.029Z,13.70
2019-05-20T22:55:11.588Z,13.60
2019-05-20T22:57:39.992Z,13.60
2019-05-20T23:00:09.241Z,13.60
2019-05-20T23:02:37.648Z,13.60
2019-05-20T23:05:06.148Z,13.60
2019-05-20T23:07:34.570Z,13.60
2019-05-20T23:10:04.299Z,13.60
2019-05-20T23:12:32.703Z,13.60
2019-05-20T23:15:01.131Z,13.60
2019-05-20T23:17:29.523Z,13.60
2019-05-20T23:19:57.959Z,13.60
2019-05-20T23:22:26.422Z,13.60
2019-05-20T23:24:54.834Z,13.60
2019-05-20T23:27:23.254Z,13.60
2019-05-20T23:29:51.657Z,13.60
2019-05-20T23:32:20.062Z,13.70
2019-05-20T23:34:48.476Z,13.70
2019-05-20T23:37:16.891Z,13.70
2019-05-20T23:39:45.299Z,13.70
2019-05-20T23:42:13.694Z,13.70
2019-05-20T23:44:42.125Z,13.70
2019-05-20T23:47:10.518Z,13.70
2019-05-20T23:49:38.943Z,13.80
2019-05-20T23:52:07.425Z,13.80
2019-05-20T23:54:35.830Z,13.80
2019-05-20T23:57:05.171Z,13.80
2019-05-20T23:59:33.582Z,13.80
